Time;durP1;ratioP1;P1;durP2;ratioP2;P2;SDS_P1;SDS_P2;PMS_P1;PMS_P2;Temp;Humidity;BMP_temperature;BMP_pressure;BME280_temperature;BME280_humidity;BME280_pressure;Samples;Min_cycle;Max_cycle;Signal;HPM_P1;HPM_P2
2024/01/08 00:00:07;;;;;;;7.63;4.10;;;0.50;99.90;;;;;;5086038;28;20024;-77
2024/01/08 00:02:33;;;;;;;7.18;4.45;;;0.50;99.90;;;;;;5086231;28;20016;-77
2024/01/08 00:04:58;;;;;;;7.60;4.40;;;0.40;99.90;;;;;;5085296;28;20049;-77
2024/01/08 00:07:25;;;;;;;6.25;4.32;;;0.50;99.90;;;;;;5085793;28;20024;-78
2024/01/08 00:09:51;;;;;;;6.65;4.45;;;0.50;99.90;;;;;;5085458;28;20074;-74
2024/01/08 00:12:16;;;;;;;5.95;4.13;;;0.50;99.90;;;;;;5086135;28;20493;-75
2024/01/08 00:14:42;;;;;;;8.52;4.95;;;0.40;99.90;;;;;;5085318;28;20024;-76
2024/01/08 00:17:08;;;;;;;6.88;4.45;;;0.50;99.90;;;;;;5085828;28;20355;-75
2024/01/08 00:19:33;;;;;;;7.22;4.63;;;0.50;99.90;;;;;;5085458;28;20426;-75
2024/01/08 00:21:59;;;;;;;8.70;5.20;;;0.50;99.90;;;;;;5067551;28;20036;-75
2024/01/08 00:24:24;;;;;;;7.30;4.70;;;0.50;99.90;;;;;;5085453;28;20538;-75
2024/01/08 00:26:50;;;;;;;8.02;5.38;;;0.50;99.90;;;;;;5067179;28;20036;-75
2024/01/08 00:29:16;;;;;;;6.95;4.50;;;0.40;99.90;;;;;;5066987;28;20059;-75
2024/01/08 00:31:41;;;;;;;9.73;4.60;;;0.40;99.90;;;;;;5067371;28;20044;-75
2024/01/08 00:34:08;;;;;;;6.35;4.50;;;0.40;99.90;;;;;;5085117;28;20020;-75
2024/01/08 00:36:34;;;;;;;8.27;4.97;;;0.40;99.90;;;;;;5085585;28;20502;-75
2024/01/08 00:39:00;;;;;;;7.85;4.97;;;0.40;99.90;;;;;;5084734;28;20020;-75
2024/01/08 00:41:26;;;;;;;8.85;4.50;;;0.40;99.90;;;;;;5067390;28;20077;-75
2024/01/08 00:43:51;;;;;;;7.97;4.85;;;0.30;99.90;;;;;;5084907;28;20481;-75
2024/01/08 00:46:17;;;;;;;7.07;4.47;;;0.30;99.90;;;;;;5085439;28;20392;-75
2024/01/08 00:48:43;;;;;;;6.78;4.57;;;0.30;99.90;;;;;;5084903;28;20059;-75
2024/01/08 00:51:09;;;;;;;7.18;4.47;;;0.30;99.90;;;;;;5067268;28;20075;-76
2024/01/08 00:53:35;;;;;;;7.25;4.57;;;0.30;99.90;;;;;;5084968;28;20024;-76
2024/01/08 00:56:01;;;;;;;6.85;4.20;;;0.30;99.90;;;;;;5066974;28;20031;-75
2024/01/08 00:58:28;;;;;;;6.80;4.45;;;0.30;99.90;;;;;;5084739;28;20034;-75
2024/01/08 01:00:54;;;;;;;6.45;4.40;;;0.20;99.90;;;;;;5085016;28;20024;-75
2024/01/08 01:03:19;;;;;;;8.23;4.57;;;0.20;99.90;;;;;;5084801;28;20052;-75
2024/01/08 01:05:45;;;;;;;6.45;4.28;;;0.20;99.90;;;;;;5085307;28;20459;-76
2024/01/08 01:08:10;;;;;;;6.47;4.00;;;0.20;99.90;;;;;;5084840;28;20023;-75
2024/01/08 01:10:36;;;;;;;7.05;4.60;;;0.20;99.90;;;;;;5067125;28;20416;-77
2024/01/08 01:13:02;;;;;;;8.05;4.35;;;0.20;99.90;;;;;;5066747;28;20545;-75
2024/01/08 01:15:28;;;;;;;6.75;4.40;;;0.10;99.90;;;;;;5084942;28;20061;-75
2024/01/08 01:17:53;;;;;;;8.07;4.50;;;0.10;99.90;;;;;;5085178;28;20031;-75
2024/01/08 01:20:19;;;;;;;6.38;4.05;;;0.10;99.90;;;;;;5066644;28;20397;-75
2024/01/08 01:22:45;;;;;;;6.35;3.63;;;0.10;99.90;;;;;;5085212;28;20389;-75
2024/01/08 01:25:11;;;;;;;6.00;3.83;;;0.10;99.90;;;;;;5085054;28;20024;-75
2024/01/08 01:27:37;;;;;;;6.80;4.22;;;0.10;99.90;;;;;;5085141;28;20032;-76
2024/01/08 01:30:03;;;;;;;7.85;4.30;;;0.10;99.90;;;;;;5066167;28;20174;-75
2024/01/08 01:32:29;;;;;;;6.25;3.97;;;0.10;99.90;;;;;;5084986;28;20519;-75
2024/01/08 01:34:55;;;;;;;7.13;4.50;;;0.00;99.90;;;;;;5084374;28;20012;-75
2024/01/08 01:37:20;;;;;;;7.38;4.05;;;0.10;99.90;;;;;;5086182;28;20078;-75
2024/01/08 01:39:46;;;;;;;5.65;3.95;;;0.00;99.90;;;;;;5088353;28;20016;-75
2024/01/08 01:42:12;;;;;;;6.95;4.78;;;0.10;99.90;;;;;;5070742;28;20047;-75
2024/01/08 01:44:38;;;;;;;7.53;4.32;;;0.00;99.90;;;;;;5088283;28;20020;-75
2024/01/08 01:47:03;;;;;;;7.15;4.45;;;0.00;99.90;;;;;;5088359;28;20024;-75
2024/01/08 01:49:29;;;;;;;6.57;3.90;;;0.00;99.90;;;;;;5088192;28;20032;-75
2024/01/08 01:51:56;;;;;;;7.25;4.35;;;0.00;99.90;;;;;;5088276;28;20040;-75
2024/01/08 01:54:23;;;;;;;7.15;4.28;;;0.00;99.90;;;;;;5069914;28;20031;-75
2024/01/08 01:56:54;;;;;;;7.78;4.38;;;0.00;99.90;;;;;;5088532;28;20028;-75
2024/01/08 01:59:21;;;;;;;6.82;4.22;;;0.00;99.90;;;;;;5087975;28;20031;-75
2024/01/08 02:01:47;;;;;;;7.15;4.25;;;-0.10;99.90;;;;;;5088244;28;20024;-75
2024/01/08 02:04:14;;;;;;;6.57;3.95;;;-0.10;99.90;;;;;;5088088;28;20357;-75
2024/01/08 02:06:40;;;;;;;7.03;4.32;;;-0.10;99.90;;;;;;5069995;28;20024;-75
2024/01/08 02:09:10;;;;;;;8.93;5.03;;;-0.10;99.90;;;;;;5069320;28;20397;-75
2024/01/08 02:11:36;;;;;;;7.38;4.57;;;-0.10;99.90;;;;;;5088499;28;20032;-75
2024/01/08 02:14:01;;;;;;;8.80;4.20;;;-0.10;99.90;;;;;;5069144;28;20371;-75
2024/01/08 02:16:27;;;;;;;8.00;4.47;;;-0.10;99.90;;;;;;5088193;28;20035;-75
2024/01/08 02:18:53;;;;;;;7.15;4.85;;;-0.10;99.90;;;;;;5086426;28;20368;-75
2024/01/08 02:21:18;;;;;;;8.27;4.88;;;-0.10;99.90;;;;;;5070026;28;20024;-75
2024/01/08 02:23:45;;;;;;;7.15;4.07;;;-0.10;99.90;;;;;;5087142;28;20028;-75
2024/01/08 02:26:12;;;;;;;8.00;4.55;;;-0.10;99.90;;;;;;5070070;28;20036;-75
2024/01/08 02:28:38;;;;;;;8.75;4.68;;;-0.20;99.90;;;;;;5069200;28;20024;-75
2024/01/08 02:31:04;;;;;;;12.15;4.90;;;-0.20;99.90;;;;;;5087902;28;20422;-75
2024/01/08 02:33:29;;;;;;;7.88;4.88;;;-0.20;99.90;;;;;;5069302;28;20020;-75
2024/01/08 02:35:57;;;;;;;9.18;4.88;;;-0.20;99.90;;;;;;5087507;28;20416;-75
2024/01/08 02:38:22;;;;;;;9.85;4.85;;;-0.20;99.90;;;;;;5087864;28;20020;-74
2024/01/08 02:40:48;;;;;;;7.90;4.32;;;-0.20;99.90;;;;;;5087316;28;20366;-74
2024/01/08 02:43:14;;;;;;;8.45;4.93;;;-0.20;99.90;;;;;;5087778;28;20077;-74
2024/01/08 02:45:39;;;;;;;8.05;4.70;;;-0.20;99.90;;;;;;5087021;28;20024;-74
2024/01/08 02:48:05;;;;;;;8.27;4.32;;;-0.20;99.90;;;;;;5069212;28;20074;-75
2024/01/08 02:50:31;;;;;;;8.90;4.32;;;-0.20;99.90;;;;;;5086855;28;20040;-76
2024/01/08 02:52:57;;;;;;;7.30;4.47;;;-0.20;99.90;;;;;;5087055;28;20374;-74
2024/01/08 02:55:22;;;;;;;6.13;3.83;;;-0.20;99.90;;;;;;5087219;28;20032;-74
2024/01/08 02:57:48;;;;;;;9.30;4.43;;;-0.20;99.90;;;;;;5087022;28;20074;-74
2024/01/08 03:00:14;;;;;;;10.40;4.43;;;-0.20;99.90;;;;;;5086346;28;20032;-74
2024/01/08 03:02:40;;;;;;;9.57;4.55;;;-0.20;99.90;;;;;;5087546;28;20020;-74
2024/01/08 03:05:06;;;;;;;8.13;4.15;;;-0.20;99.90;;;;;;5075660;28;20031;-74
2024/01/08 03:07:31;;;;;;;8.27;4.30;;;-0.20;99.90;;;;;;5087675;28;20044;-74
2024/01/08 03:09:58;;;;;;;8.13;4.53;;;-0.20;99.90;;;;;;5068317;28;20542;-73
2024/01/08 03:12:24;;;;;;;8.73;4.25;;;-0.20;99.90;;;;;;5087466;28;20032;-74
2024/01/08 03:14:50;;;;;;;9.05;4.40;;;-0.20;99.90;;;;;;5086250;28;20035;-74
2024/01/08 03:17:16;;;;;;;7.30;4.10;;;-0.20;99.90;;;;;;5087112;28;20046;-74
2024/01/08 03:19:42;;;;;;;8.52;4.45;;;-0.10;99.90;;;;;;5086174;28;20499;-74
2024/01/08 03:22:07;;;;;;;6.97;4.35;;;-0.10;99.90;;;;;;5086868;28;20028;-74
2024/01/08 03:24:34;;;;;;;6.90;4.18;;;-0.20;99.90;;;;;;5086659;28;20032;-75
2024/01/08 03:27:00;;;;;;;8.30;4.50;;;-0.10;99.90;;;;;;5086910;28;20126;-75
2024/01/08 03:29:26;;;;;;;7.50;4.45;;;-0.10;99.90;;;;;;5086528;28;20533;-74
2024/01/08 03:31:52;;;;;;;8.77;4.68;;;-0.10;99.90;;;;;;5068368;28;20565;-74
2024/01/08 03:34:17;;;;;;;8.85;4.88;;;-0.10;99.90;;;;;;5086375;28;20670;-74
2024/01/08 03:36:47;;;;;;;7.90;4.43;;;-0.10;99.90;;;;;;5086688;28;20485;-74
2024/01/08 03:39:13;;;;;;;7.93;4.53;;;-0.10;99.90;;;;;;5086837;28;20016;-73
2024/01/08 03:41:40;;;;;;;7.28;4.10;;;-0.10;99.90;;;;;;5069061;28;20119;-74
2024/01/08 03:44:06;;;;;;;7.63;4.53;;;-0.10;99.90;;;;;;5086175;28;20021;-74
2024/01/08 03:46:32;;;;;;;8.38;4.70;;;-0.10;99.90;;;;;;5086570;28;20488;-74
2024/01/08 03:48:57;;;;;;;7.03;4.00;;;0.00;99.90;;;;;;5085848;28;20024;-74
2024/01/08 03:51:23;;;;;;;8.80;5.57;;;0.00;99.90;;;;;;5085955;28;20044;-74
2024/01/08 03:53:49;;;;;;;8.98;4.63;;;0.00;99.90;;;;;;5085467;28;20393;-74
2024/01/08 03:56:15;;;;;;;7.10;4.18;;;0.00;99.90;;;;;;5086222;28;20016;-74
2024/01/08 03:58:40;;;;;;;8.05;4.63;;;0.00;99.90;;;;;;5086001;28;20103;-74
2024/01/08 04:01:09;;;;;;;6.97;4.10;;;0.00;99.90;;;;;;5085439;28;20028;-74
2024/01/08 04:03:35;;;;;;;10.18;4.85;;;0.10;99.90;;;;;;5086695;28;20047;-74
2024/01/08 04:06:00;;;;;;;6.95;4.30;;;0.10;99.90;;;;;;5067364;28;20557;-74
2024/01/08 04:08:26;;;;;;;8.38;4.68;;;0.00;99.90;;;;;;5086103;28;20106;-74
2024/01/08 04:10:52;;;;;;;8.05;4.85;;;0.10;99.90;;;;;;5085315;28;20020;-74
2024/01/08 04:13:18;;;;;;;8.02;4.72;;;0.10;99.90;;;;;;5086358;28;20028;-74
2024/01/08 04:15:43;;;;;;;9.40;5.53;;;0.10;99.90;;;;;;5085240;28;20012;-74
2024/01/08 04:18:09;;;;;;;8.55;4.70;;;0.10;99.90;;;;;;5067665;28;20024;-74
2024/01/08 04:20:35;;;;;;;9.07;4.47;;;0.10;99.90;;;;;;5085341;28;20016;-74
2024/01/08 04:23:00;;;;;;;9.10;5.03;;;0.10;99.90;;;;;;5068073;28;20554;-74
2024/01/08 04:25:26;;;;;;;8.90;5.03;;;0.10;99.90;;;;;;5085146;28;20024;-74
2024/01/08 04:27:52;;;;;;;8.25;4.65;;;0.10;99.90;;;;;;5085665;28;20031;-75
2024/01/08 04:30:18;;;;;;;10.02;5.13;;;0.10;99.90;;;;;;5085635;28;20049;-74
2024/01/08 04:32:44;;;;;;;8.93;5.82;;;0.10;99.90;;;;;;5085520;28;20520;-75
2024/01/08 04:35:09;;;;;;;11.73;5.60;;;0.10;99.90;;;;;;5085085;28;20085;-74
2024/01/08 04:37:35;;;;;;;8.95;4.85;;;0.10;99.90;;;;;;5085638;28;20043;-75
2024/01/08 04:40:00;;;;;;;10.38;5.28;;;0.10;99.90;;;;;;5066500;28;20310;-74
2024/01/08 04:42:26;;;;;;;8.18;5.57;;;0.10;99.90;;;;;;5085687;28;20191;-75
2024/01/08 04:44:52;;;;;;;11.13;6.15;;;0.20;99.90;;;;;;5084583;28;20020;-75
2024/01/08 04:47:17;;;;;;;8.77;5.32;;;0.10;99.90;;;;;;5085647;28;20077;-75
2024/01/08 04:49:43;;;;;;;9.50;5.40;;;0.10;99.90;;;;;;5084581;28;20074;-74
2024/01/08 04:52:08;;;;;;;9.35;5.50;;;0.20;99.90;;;;;;5085167;28;20040;-74
2024/01/08 04:54:34;;;;;;;9.45;5.65;;;0.20;99.90;;;;;;5066642;28;20358;-75
2024/01/08 04:57:00;;;;;;;8.60;5.53;;;0.20;99.90;;;;;;5085792;28;20530;-74
2024/01/08 04:59:25;;;;;;;9.45;5.63;;;0.20;99.90;;;;;;5085046;28;20042;-74
2024/01/08 05:01:51;;;;;;;9.82;6.07;;;0.20;99.90;;;;;;5085397;28;20031;-74
2024/01/08 05:04:17;;;;;;;12.80;5.30;;;0.20;99.90;;;;;;5084604;28;20063;-74
2024/01/08 05:06:44;;;;;;;8.45;5.25;;;0.20;99.90;;;;;;5085244;28;20024;-74
2024/01/08 05:09:10;;;;;;;10.60;5.53;;;0.20;99.90;;;;;;5084880;28;20032;-74
2024/01/08 05:11:36;;;;;;;10.25;5.55;;;0.20;99.90;;;;;;5085293;28;20038;-73
2024/01/08 05:14:04;;;;;;;9.48;5.40;;;0.20;99.90;;;;;;5088368;28;20023;-73
2024/01/08 05:16:29;;;;;;;9.52;5.65;;;0.20;99.90;;;;;;5089363;28;20447;-73
2024/01/08 05:18:55;;;;;;;11.95;6.50;;;0.20;99.90;;;;;;5088680;28;20500;-73
2024/01/08 05:21:21;;;;;;;8.68;5.40;;;0.20;99.90;;;;;;5089134;28;20055;-73
2024/01/08 05:23:46;;;;;;;9.68;5.80;;;0.20;99.90;;;;;;5089435;28;20031;-74
2024/01/08 05:26:12;;;;;;;11.48;6.13;;;0.20;99.90;;;;;;5088902;28;20024;-74
2024/01/08 05:28:38;;;;;;;8.90;5.60;;;0.30;99.90;;;;;;5089165;28;20093;-76
2024/01/08 05:31:03;;;;;;;8.65;5.60;;;0.30;99.90;;;;;;5087817;28;20089;-74
2024/01/08 05:33:29;;;;;;;9.18;5.78;;;0.30;99.90;;;;;;5089500;28;20024;-73
2024/01/08 05:35:55;;;;;;;9.70;6.00;;;0.30;99.90;;;;;;5088022;28;20350;-73
2024/01/08 05:38:21;;;;;;;12.70;6.20;;;0.30;99.90;;;;;;5089026;28;20028;-73
2024/01/08 05:40:47;;;;;;;9.45;5.60;;;0.30;99.90;;;;;;5087978;28;20024;-74
2024/01/08 05:43:13;;;;;;;10.30;6.55;;;0.30;99.90;;;;;;5070311;28;20081;-75
2024/01/08 05:45:39;;;;;;;10.10;5.72;;;0.30;99.90;;;;;;5088431;28;20110;-75
2024/01/08 05:48:06;;;;;;;13.30;6.28;;;0.30;99.90;;;;;;5088687;28;20030;-74
2024/01/08 05:50:32;;;;;;;9.10;5.55;;;0.30;99.90;;;;;;5088176;28;20032;-75
2024/01/08 05:52:59;;;;;;;10.05;5.85;;;0.30;99.90;;;;;;5088377;28;20042;-75
2024/01/08 05:55:25;;;;;;;9.75;5.47;;;0.40;99.90;;;;;;5088214;28;20384;-75
2024/01/08 05:57:50;;;;;;;15.20;5.70;;;0.30;99.90;;;;;;5088145;28;20034;-75
2024/01/08 06:00:16;;;;;;;10.18;5.60;;;0.30;99.90;;;;;;5088189;28;20030;-75
2024/01/08 06:02:42;;;;;;;9.70;5.43;;;0.30;99.90;;;;;;5088532;28;20031;-75
2024/01/08 06:05:08;;;;;;;10.73;5.57;;;0.30;99.90;;;;;;5069476;28;20020;-75
2024/01/08 06:07:34;;;;;;;11.00;6.43;;;0.40;99.90;;;;;;5088804;28;20031;-75
2024/01/08 06:10:00;;;;;;;12.27;5.80;;;0.40;99.90;;;;;;5069197;28;20069;-75
2024/01/08 06:12:26;;;;;;;9.32;5.57;;;0.40;99.90;;;;;;5088383;28;20028;-75
2024/01/08 06:14:52;;;;;;;11.77;6.13;;;0.40;99.90;;;;;;5087661;28;20055;-75
2024/01/08 06:17:18;;;;;;;10.40;5.95;;;0.40;99.90;;;;;;5088187;28;20473;-75
2024/01/08 06:19:44;;;;;;;10.05;5.70;;;0.40;99.90;;;;;;5087248;28;20068;-75
2024/01/08 06:22:09;;;;;;;11.65;5.88;;;0.40;99.90;;;;;;5088047;28;20028;-75
2024/01/08 06:24:35;;;;;;;10.88;5.85;;;0.40;99.90;;;;;;5068895;28;20075;-75
2024/01/08 06:27:01;;;;;;;11.40;6.35;;;0.30;99.90;;;;;;5069511;28;20554;-75
2024/01/08 06:29:26;;;;;;;10.25;6.13;;;0.40;99.90;;;;;;5086275;28;20028;-75
2024/01/08 06:31:52;;;;;;;10.27;5.65;;;0.40;99.90;;;;;;5069423;28;20036;-75
2024/01/08 06:34:18;;;;;;;13.45;5.90;;;0.40;99.90;;;;;;5087292;28;20382;-75
2024/01/08 06:36:43;;;;;;;9.88;5.85;;;0.40;99.90;;;;;;5088097;28;20135;-75
2024/01/08 06:39:09;;;;;;;10.50;5.78;;;0.40;99.90;;;;;;5087771;28;20028;-75
2024/01/08 06:41:38;;;;;;;11.45;5.97;;;0.40;99.90;;;;;;5088106;28;20016;-75
2024/01/08 06:44:04;;;;;;;11.93;5.47;;;0.40;99.90;;;;;;5087609;28;20050;-74
2024/01/08 06:46:30;;;;;;;9.02;5.47;;;0.50;99.90;;;;;;5087003;28;20032;-74
2024/01/08 06:48:57;;;;;;;9.18;5.53;;;0.40;99.90;;;;;;5087301;28;20429;-74
2024/01/08 06:51:23;;;;;;;9.73;5.35;;;0.50;99.90;;;;;;5068338;28;20050;-75
2024/01/08 06:53:49;;;;;;;11.88;6.05;;;0.50;99.90;;;;;;5087608;28;20111;-75
2024/01/08 06:56:14;;;;;;;11.52;6.13;;;0.50;99.90;;;;;;5068397;28;20103;-74
2024/01/08 06:58:40;;;;;;;10.60;5.57;;;0.40;99.90;;;;;;5087702;28;20028;-74
2024/01/08 07:01:06;;;;;;;8.90;5.60;;;0.50;99.90;;;;;;5086672;28;20027;-74
2024/01/08 07:03:32;;;;;;;9.82;5.47;;;0.50;99.90;;;;;;5087577;28;20497;-75
2024/01/08 07:05:59;;;;;;;8.98;4.95;;;0.50;99.90;;;;;;5086579;28;20032;-75
2024/01/08 07:08:25;;;;;;;12.27;5.50;;;0.50;99.90;;;;;;5087063;28;20020;-75
2024/01/08 07:10:51;;;;;;;10.52;5.20;;;0.50;99.90;;;;;;5086640;28;20077;-75
2024/01/08 07:13:17;;;;;;;10.07;5.53;;;0.50;99.90;;;;;;5087209;28;20468;-75
2024/01/08 07:15:48;;;;;;;9.65;4.97;;;0.50;99.90;;;;;;5085797;28;20012;-75
2024/01/08 07:18:15;;;;;;;9.52;5.57;;;0.40;99.90;;;;;;5087461;28;20028;-76
2024/01/08 07:20:41;;;;;;;9.60;4.80;;;0.40;99.90;;;;;;5085908;28;20020;-76
2024/01/08 07:23:08;;;;;;;9.00;4.90;;;0.50;99.90;;;;;;5068545;28;20028;-76
2024/01/08 07:25:38;;;;;;;8.43;4.95;;;0.50;99.90;;;;;;5085786;28;20073;-76
2024/01/08 07:28:09;;;;;;;9.80;5.53;;;0.50;99.90;;;;;;5086453;28;20501;-76
2024/01/08 07:30:35;;;;;;;9.10;4.90;;;0.50;99.90;;;;;;5088523;28;20028;-76
2024/01/08 07:33:01;;;;;;;8.25;4.72;;;0.50;99.90;;;;;;5078967;28;20016;-76
2024/01/08 07:35:27;;;;;;;7.88;4.95;;;0.50;99.90;;;;;;5084883;28;20031;-76
2024/01/08 07:37:55;;;;;;;8.43;4.88;;;0.50;99.90;;;;;;5082435;28;20024;-75
2024/01/08 07:40:25;;;;;;;7.50;4.50;;;0.50;99.90;;;;;;5083716;28;20032;-75
2024/01/08 07:42:57;;;;;;;7.88;4.53;;;0.50;99.90;;;;;;5066613;28;20472;-75
2024/01/08 07:45:26;;;;;;;8.00;4.47;;;0.50;99.90;;;;;;5085105;28;20023;-76
2024/01/08 07:47:52;;;;;;;9.45;5.30;;;0.50;99.90;;;;;;5083383;28;20032;-76
2024/01/08 07:50:19;;;;;;;8.73;4.80;;;0.50;99.90;;;;;;5065687;28;20413;-76
2024/01/08 07:52:45;;;;;;;9.27;5.15;;;0.50;99.90;;;;;;5085196;28;20484;-76
2024/01/08 07:55:12;;;;;;;9.60;5.13;;;0.50;99.90;;;;;;5085430;28;20115;-76
2024/01/08 07:57:38;;;;;;;10.63;5.18;;;0.50;99.90;;;;;;5086059;28;20078;-76
2024/01/08 08:00:06;;;;;;;7.22;4.28;;;0.50;99.90;;;;;;5084659;28;20081;-76
2024/01/08 08:02:35;;;;;;;8.38;4.80;;;0.50;99.90;;;;;;5080325;28;20040;-76
2024/01/08 08:05:01;;;;;;;7.93;4.88;;;0.50;99.90;;;;;;5083162;28;20726;-76
2024/01/08 08:07:28;;;;;;;9.05;4.50;;;0.50;99.90;;;;;;5081593;28;20032;-77
2024/01/08 08:09:54;;;;;;;8.52;5.20;;;0.50;99.90;;;;;;5085225;28;20093;-76
2024/01/08 08:12:20;;;;;;;8.63;4.57;;;0.50;99.90;;;;;;5086204;28;20036;-76
2024/01/08 08:14:48;;;;;;;8.23;4.57;;;0.50;99.90;;;;;;5067025;28;20504;-76
2024/01/08 08:17:14;;;;;;;8.95;4.90;;;0.50;99.90;;;;;;5086203;28;20024;-76
2024/01/08 08:19:43;;;;;;;8.48;5.00;;;0.50;99.90;;;;;;5085122;28;20113;-76
2024/01/08 08:22:13;;;;;;;8.88;4.90;;;0.50;99.90;;;;;;5085779;28;20028;-76
2024/01/08 08:24:39;;;;;;;8.00;4.75;;;0.50;99.90;;;;;;5076234;28;20024;-76
2024/01/08 08:27:09;;;;;;;8.63;4.95;;;0.50;99.90;;;;;;5067760;28;20047;-76
2024/01/08 08:29:37;;;;;;;9.88;4.90;;;0.50;99.90;;;;;;5084081;28;20102;-76
2024/01/08 08:32:03;;;;;;;9.55;5.30;;;0.50;99.90;;;;;;5077634;28;20387;-76
2024/01/08 08:34:29;;;;;;;8.93;5.00;;;0.50;99.90;;;;;;5078439;28;20029;-76
2024/01/08 08:36:55;;;;;;;10.27;5.00;;;0.50;99.90;;;;;;5062226;28;20107;-75
2024/01/08 08:39:22;;;;;;;9.35;5.50;;;0.60;99.90;;;;;;5072491;28;20019;-76
2024/01/08 08:41:48;;;;;;;8.15;4.47;;;0.60;99.90;;;;;;5084619;28;20428;-75
2024/01/08 08:44:14;;;;;;;7.82;4.80;;;0.60;99.90;;;;;;5085509;28;20599;-76
2024/01/08 08:46:40;;;;;;;9.32;4.50;;;0.60;99.90;;;;;;5084740;28;20396;-76
2024/01/08 08:49:06;;;;;;;7.32;4.72;;;0.60;99.90;;;;;;5084887;28;20016;-76
2024/01/08 08:51:34;;;;;;;7.97;4.93;;;0.60;99.90;;;;;;5066048;28;20044;-75
2024/01/08 08:54:03;;;;;;;9.48;4.72;;;0.60;99.90;;;;;;5066991;28;20016;-76
2024/01/08 08:56:30;;;;;;;7.82;4.60;;;0.60;99.90;;;;;;5066438;28;20054;-76
2024/01/08 08:58:57;;;;;;;9.80;5.60;;;0.60;99.90;;;;;;5085271;28;20453;-76
2024/01/08 09:01:23;;;;;;;9.05;5.32;;;0.60;99.90;;;;;;5066763;28;20103;-76
2024/01/08 09:03:48;;;;;;;9.60;5.50;;;0.60;99.90;;;;;;5073240;28;20447;-76
2024/01/08 09:06:14;;;;;;;8.75;4.88;;;0.60;99.90;;;;;;5064279;28;20032;-76
2024/01/08 09:08:39;;;;;;;8.60;5.10;;;0.70;99.90;;;;;;5084443;28;20040;-76
2024/01/08 09:11:05;;;;;;;8.45;5.45;;;0.70;99.90;;;;;;5083813;28;20180;-77
2024/01/08 09:13:32;;;;;;;8.68;5.53;;;0.70;99.90;;;;;;5066791;28;20021;-77
2024/01/08 09:15:59;;;;;;;7.43;4.53;;;0.60;99.90;;;;;;5078470;28;20097;-75
2024/01/08 09:18:26;;;;;;;9.23;5.53;;;0.60;99.90;;;;;;5084662;28;20027;-76
2024/01/08 09:20:52;;;;;;;7.65;5.25;;;0.60;99.90;;;;;;5064279;28;20043;-75
2024/01/08 09:23:17;;;;;;;9.00;5.22;;;0.60;99.90;;;;;;5084684;28;20024;-75
2024/01/08 09:25:43;;;;;;;8.88;4.68;;;0.60;99.90;;;;;;5080680;28;20032;-74
2024/01/08 09:28:09;;;;;;;10.02;5.20;;;0.60;99.90;;;;;;5063242;28;20519;-73
2024/01/08 09:30:35;;;;;;;8.43;5.05;;;0.60;99.90;;;;;;5083179;28;20028;-74
2024/01/08 09:33:00;;;;;;;8.80;5.40;;;0.70;99.90;;;;;;5084317;28;20672;-74
2024/01/08 09:35:26;;;;;;;9.60;5.50;;;0.70;99.90;;;;;;5065579;28;20027;-75
2024/01/08 09:37:52;;;;;;;9.85;4.90;;;0.70;99.90;;;;;;5067143;28;20022;-74
2024/01/08 09:40:17;;;;;;;7.82;4.70;;;0.80;99.90;;;;;;5084904;28;20020;-75
2024/01/08 09:42:43;;;;;;;7.40;4.95;;;0.80;99.90;;;;;;5085233;28;20035;-75
2024/01/08 09:45:12;;;;;;;7.85;4.70;;;0.80;99.90;;;;;;5065800;28;20027;-73
2024/01/08 09:47:40;;;;;;;9.10;5.68;;;0.80;99.90;;;;;;5083780;28;20227;-73
2024/01/08 09:50:11;;;;;;;7.97;4.38;;;0.80;99.90;;;;;;5084313;28;20028;-75
2024/01/08 09:52:39;;;;;;;9.63;5.20;;;0.80;99.90;;;;;;5066265;28;20020;-74
2024/01/08 09:55:09;;;;;;;10.15;4.70;;;0.80;99.90;;;;;;5065572;28;20054;-74
2024/01/08 09:57:34;;;;;;;7.82;4.68;;;0.80;99.90;;;;;;5078893;28;20032;-76
2024/01/08 10:00:00;;;;;;;7.55;4.85;;;0.90;99.90;;;;;;5088145;28;20076;-75
2024/01/08 10:02:26;;;;;;;12.35;4.07;;;0.90;99.90;;;;;;5091739;28;20441;-77
2024/01/08 10:04:52;;;;;;;8.82;5.10;;;0.80;99.90;;;;;;5087905;28;20024;-75
2024/01/08 10:07:18;;;;;;;7.07;4.05;;;0.90;99.90;;;;;;5070176;28;20024;-73
2024/01/08 10:09:43;;;;;;;7.70;4.70;;;0.90;99.90;;;;;;5069595;28;20033;-74
2024/01/08 10:12:12;;;;;;;7.25;4.57;;;0.80;99.90;;;;;;5087640;28;20099;-74
2024/01/08 10:14:39;;;;;;;7.10;4.40;;;0.90;99.90;;;;;;5088049;28;20055;-75
2024/01/08 10:17:05;;;;;;;9.65;4.93;;;0.90;99.90;;;;;;5087286;28;20035;-75
2024/01/08 10:19:31;;;;;;;8.15;5.00;;;0.90;99.90;;;;;;5069970;28;20019;-74
2024/01/08 10:22:13;;;;;;;7.70;4.95;;;0.90;99.90;;;;;;5090624;28;20107;-74
2024/01/08 10:24:41;;;;;;;8.73;4.90;;;0.90;99.90;;;;;;5087879;28;20024;-74
2024/01/08 10:27:08;;;;;;;8.35;4.65;;;0.90;99.90;;;;;;5069232;28;20082;-74
2024/01/08 10:29:35;;;;;;;8.60;4.32;;;0.90;99.90;;;;;;5087914;28;20043;-74
2024/01/08 10:32:01;;;;;;;8.27;4.72;;;0.90;99.90;;;;;;5066273;28;20539;-74
2024/01/08 10:34:27;;;;;;;8.27;4.68;;;0.90;99.90;;;;;;5079154;28;20032;-75
2024/01/08 10:36:55;;;;;;;8.57;4.50;;;1.00;99.90;;;;;;5063472;28;20023;-75
2024/01/08 10:39:22;;;;;;;9.05;5.35;;;1.00;99.90;;;;;;5068903;28;20049;-74
2024/01/08 10:41:48;;;;;;;10.02;6.82;;;1.00;99.90;;;;;;5086465;28;20559;-75
2024/01/08 10:44:14;;;;;;;8.38;4.95;;;1.00;99.90;;;;;;5070673;28;20058;-74
2024/01/08 10:47:05;;;;;;;8.30;4.38;;;1.00;99.90;;;;;;5066325;28;20089;-74
2024/01/08 10:49:36;;;;;;;9.02;5.55;;;1.10;99.90;;;;;;5087297;28;20028;-74
2024/01/08 10:52:09;;;;;;;8.40;4.93;;;1.10;99.90;;;;;;5084806;28;20489;-74
2024/01/08 10:54:50;;;;;;;9.40;5.13;;;1.20;99.90;;;;;;5085714;28;20042;-74
2024/01/08 10:57:19;;;;;;;8.07;4.80;;;1.30;99.90;;;;;;5086613;28;20165;-74
2024/01/08 10:59:46;;;;;;;8.15;4.38;;;1.30;99.90;;;;;;5086963;28;20056;-74
2024/01/08 11:02:14;;;;;;;7.13;4.53;;;1.40;99.90;;;;;;5085287;28;20043;-74
2024/01/08 11:04:42;;;;;;;7.65;4.40;;;1.40;99.90;;;;;;5086738;28;20424;-74
2024/01/08 11:07:15;;;;;;;7.30;4.55;;;1.40;99.90;;;;;;5086498;28;20049;-73
2024/01/08 11:09:41;;;;;;;8.77;4.53;;;1.40;99.90;;;;;;5087036;28;20043;-74
2024/01/08 11:12:10;;;;;;;6.40;4.43;;;1.30;99.90;;;;;;5068104;28;20043;-74
2024/01/08 11:14:39;;;;;;;6.80;4.40;;;1.30;99.90;;;;;;5068454;28;20050;-74
2024/01/08 11:17:09;;;;;;;6.78;4.18;;;1.30;99.90;;;;;;5067769;28;20016;-73
2024/01/08 11:19:45;;;;;;;7.93;4.40;;;1.30;99.90;;;;;;5058266;28;20024;-73
2024/01/08 11:22:13;;;;;;;6.65;4.50;;;1.30;99.90;;;;;;5086780;28;20584;-74
2024/01/08 11:24:39;;;;;;;6.50;4.28;;;1.30;99.90;;;;;;5086951;28;20111;-73
2024/01/08 11:27:05;;;;;;;5.60;3.97;;;1.30;99.90;;;;;;5068264;28;20517;-73
2024/01/08 11:29:33;;;;;;;6.35;4.20;;;1.20;99.90;;;;;;5078239;28;20535;-73
2024/01/08 11:32:32;;;;;;;7.82;4.63;;;1.20;99.90;;;;;;5067208;28;20056;-72
2024/01/08 11:35:03;;;;;;;6.82;4.22;;;1.30;99.90;;;;;;5081521;28;20031;-72
2024/01/08 11:37:37;;;;;;;7.35;3.75;;;1.40;99.90;;;;;;5085673;28;20024;-72
2024/01/08 11:40:17;;;;;;;6.40;3.83;;;1.40;99.90;;;;;;5084891;28;20512;-72
2024/01/08 11:42:50;;;;;;;6.55;3.83;;;1.40;99.90;;;;;;5074714;28;20024;-71
2024/01/08 11:45:22;;;;;;;7.57;4.10;;;1.50;99.90;;;;;;5085480;28;20028;-73
2024/01/08 11:47:47;;;;;;;6.25;3.78;;;1.50;99.90;;;;;;5056713;28;20043;-74
2024/01/08 11:50:14;;;;;;;6.28;3.38;;;1.50;99.90;;;;;;5067660;28;20501;-73
2024/01/08 11:52:41;;;;;;;7.65;3.47;;;1.60;99.90;;;;;;5052985;28;20028;-73
2024/01/08 11:55:08;;;;;;;5.72;3.42;;;1.60;99.90;;;;;;5084051;28;20039;-73
2024/01/08 11:57:35;;;;;;;6.75;3.63;;;1.60;99.90;;;;;;5063843;28;20036;-73
2024/01/08 12:00:20;;;;;;;5.32;3.30;;;1.70;99.90;;;;;;5076921;28;20019;-73
2024/01/08 12:02:46;;;;;;;7.22;3.38;;;1.60;99.90;;;;;;5062203;28;20055;-72
2024/01/08 12:05:13;;;;;;;6.15;3.05;;;1.60;99.90;;;;;;5085912;28;20037;-73
2024/01/08 12:07:39;;;;;;;5.10;3.05;;;1.60;99.90;;;;;;5083671;28;20032;-73
2024/01/08 12:10:08;;;;;;;5.35;3.38;;;1.70;99.90;;;;;;5085628;28;20012;-73
2024/01/08 12:12:35;;;;;;;4.53;3.03;;;1.80;99.90;;;;;;5085653;28;20102;-73
2024/01/08 12:15:01;;;;;;;6.13;2.97;;;2.00;99.90;;;;;;5080035;28;20016;-73
2024/01/08 12:17:27;;;;;;;4.20;2.72;;;2.10;99.90;;;;;;5087246;28;20024;-73
2024/01/08 12:19:55;;;;;;;5.70;3.28;;;2.30;99.90;;;;;;5080749;28;20032;-72
2024/01/08 12:22:25;;;;;;;5.68;2.80;;;2.40;99.90;;;;;;5074158;28;20036;-73
2024/01/08 12:24:52;;;;;;;5.53;2.40;;;2.50;99.90;;;;;;5085298;28;20024;-72
2024/01/08 12:27:20;;;;;;;4.50;2.53;;;2.50;99.90;;;;;;5084433;28;20051;-72
2024/01/08 12:29:49;;;;;;;5.03;3.08;;;2.60;99.90;;;;;;5085565;28;20107;-72
2024/01/08 12:32:17;;;;;;;6.80;2.90;;;2.60;99.90;;;;;;5064858;28;20188;-72
2024/01/08 12:34:43;;;;;;;7.20;3.65;;;2.60;99.90;;;;;;5073674;28;20103;-73
2024/01/08 12:37:11;;;;;;;5.72;2.72;;;2.60;99.90;;;;;;5079921;28;20032;-73
2024/01/08 12:39:38;;;;;;;5.82;2.88;;;2.60;99.90;;;;;;5081762;28;20027;-72
2024/01/08 12:42:14;;;;;;;5.30;2.78;;;2.50;99.90;;;;;;5066648;28;20485;-73
2024/01/08 12:44:41;;;;;;;3.90;2.45;;;2.60;99.90;;;;;;5085156;28;20517;-72
2024/01/08 12:47:07;;;;;;;7.85;2.47;;;2.60;99.90;;;;;;5084774;28;20032;-72
2024/01/08 12:49:34;;;;;;;4.15;2.28;;;2.70;99.90;;;;;;5082610;28;20016;-72
2024/01/08 12:52:00;;;;;;;4.20;2.25;;;2.70;99.90;;;;;;5084161;28;20044;-72